sensor_id;sensor_type;location;lat;lon;timestamp;P1;durP1;ratioP1;P2;durP2;ratioP2
77332;SDS011;66408;51.326;12.070;2023-07-24T00:01:08;3.40;;;1.30;;
77332;SDS011;66408;51.326;12.070;2023-07-24T00:03:35;3.80;;;1.10;;
77332;SDS011;66408;51.326;12.070;2023-07-24T00:06:02;1.98;;;1.23;;
77332;SDS011;66408;51.326;12.070;2023-07-24T00:08:30;1.55;;;0.98;;
77332;SDS011;66408;51.326;12.070;2023-07-24T00:10:57;1.77;;;1.10;;
77332;SDS011;66408;51.326;12.070;2023-07-24T00:13:24;2.38;;;1.25;;
77332;SDS011;66408;51.326;12.070;2023-07-24T00:15:50;2.05;;;1.08;;
77332;SDS011;66408;51.326;12.070;2023-07-24T00:18:17;3.55;;;1.20;;
77332;SDS011;66408;51.326;12.070;2023-07-24T00:20:44;4.25;;;1.38;;
77332;SDS011;66408;51.326;12.070;2023-07-24T00:23:11;1.95;;;1.00;;
77332;SDS011;66408;51.326;12.070;2023-07-24T00:25:37;1.77;;;0.88;;
77332;SDS011;66408;51.326;12.070;2023-07-24T00:28:04;2.17;;;1.10;;
77332;SDS011;66408;51.326;12.070;2023-07-24T00:30:31;2.17;;;1.15;;
77332;SDS011;66408;51.326;12.070;2023-07-24T00:32:57;2.92;;;1.30;;
77332;SDS011;66408;51.326;12.070;2023-07-24T00:35:25;2.22;;;1.30;;
77332;SDS011;66408;51.326;12.070;2023-07-24T00:37:52;1.95;;;1.10;;
77332;SDS011;66408;51.326;12.070;2023-07-24T00:40:19;2.10;;;1.20;;
77332;SDS011;66408;51.326;12.070;2023-07-24T00:42:46;2.00;;;1.10;;
77332;SDS011;66408;51.326;12.070;2023-07-24T00:45:15;2.35;;;1.48;;
77332;SDS011;66408;51.326;12.070;2023-07-24T00:47:42;2.25;;;1.38;;
77332;SDS011;66408;51.326;12.070;2023-07-24T00:50:09;5.03;;;1.35;;
77332;SDS011;66408;51.326;12.070;2023-07-24T00:52:38;3.20;;;1.25;;
77332;SDS011;66408;51.326;12.070;2023-07-24T00:55:05;3.03;;;1.40;;
77332;SDS011;66408;51.326;12.070;2023-07-24T00:57:32;3.17;;;1.48;;
77332;SDS011;66408;51.326;12.070;2023-07-24T00:59:59;3.22;;;1.58;;
77332;SDS011;66408;51.326;12.070;2023-07-24T01:02:26;2.80;;;1.23;;
77332;SDS011;66408;51.326;12.070;2023-07-24T01:04:53;3.05;;;1.52;;
77332;SDS011;66408;51.326;12.070;2023-07-24T01:07:20;2.95;;;1.48;;
77332;SDS011;66408;51.326;12.070;2023-07-24T01:09:47;4.20;;;1.63;;
77332;SDS011;66408;51.326;12.070;2023-07-24T01:12:17;1.70;;;1.10;;
77332;SDS011;66408;51.326;12.070;2023-07-24T01:14:50;3.08;;;1.60;;
77332;SDS011;66408;51.326;12.070;2023-07-24T01:17:23;3.25;;;1.40;;
77332;SDS011;66408;51.326;12.070;2023-07-24T01:20:00;3.65;;;1.10;;
77332;SDS011;66408;51.326;12.070;2023-07-24T01:26:18;2.92;;;1.30;;
77332;SDS011;66408;51.326;12.070;2023-07-24T01:28:45;3.15;;;1.40;;
77332;SDS011;66408;51.326;12.070;2023-07-24T01:31:13;3.75;;;1.55;;
77332;SDS011;66408;51.326;12.070;2023-07-24T01:33:40;2.50;;;1.25;;
77332;SDS011;66408;51.326;12.070;2023-07-24T01:36:07;2.40;;;1.45;;
77332;SDS011;66408;51.326;12.070;2023-07-24T01:38:35;1.92;;;1.20;;
77332;SDS011;66408;51.326;12.070;2023-07-24T01:41:03;2.22;;;1.35;;
77332;SDS011;66408;51.326;12.070;2023-07-24T01:43:30;2.90;;;1.25;;
77332;SDS011;66408;51.326;12.070;2023-07-24T01:45:58;2.22;;;1.15;;
77332;SDS011;66408;51.326;12.070;2023-07-24T01:48:25;2.45;;;1.45;;
77332;SDS011;66408;51.326;12.070;2023-07-24T01:50:51;2.60;;;1.27;;
77332;SDS011;66408;51.326;12.070;2023-07-24T01:53:18;2.25;;;1.30;;
77332;SDS011;66408;51.326;12.070;2023-07-24T01:55:45;2.45;;;1.40;;
77332;SDS011;66408;51.326;12.070;2023-07-24T01:58:11;4.78;;;1.45;;
77332;SDS011;66408;51.326;12.070;2023-07-24T02:00:38;3.30;;;1.50;;
77332;SDS011;66408;51.326;12.070;2023-07-24T02:03:05;2.42;;;1.35;;
77332;SDS011;66408;51.326;12.070;2023-07-24T02:05:32;3.50;;;1.40;;
77332;SDS011;66408;51.326;12.070;2023-07-24T02:07:58;2.25;;;1.10;;
77332;SDS011;66408;51.326;12.070;2023-07-24T02:10:25;2.58;;;1.40;;
77332;SDS011;66408;51.326;12.070;2023-07-24T02:12:52;2.50;;;1.40;;
77332;SDS011;66408;51.326;12.070;2023-07-24T02:15:18;2.70;;;1.20;;
77332;SDS011;66408;51.326;12.070;2023-07-24T02:17:45;2.75;;;1.40;;
77332;SDS011;66408;51.326;12.070;2023-07-24T02:20:12;2.25;;;1.30;;
77332;SDS011;66408;51.326;12.070;2023-07-24T02:22:38;2.70;;;1.27;;
77332;SDS011;66408;51.326;12.070;2023-07-24T02:25:05;4.05;;;1.70;;
77332;SDS011;66408;51.326;12.070;2023-07-24T02:27:32;3.78;;;1.42;;
77332;SDS011;66408;51.326;12.070;2023-07-24T02:32:28;2.95;;;1.98;;
77332;SDS011;66408;51.326;12.070;2023-07-24T02:34:55;2.63;;;1.30;;
77332;SDS011;66408;51.326;12.070;2023-07-24T02:37:22;3.58;;;1.67;;
77332;SDS011;66408;51.326;12.070;2023-07-24T02:39:48;2.95;;;1.70;;
77332;SDS011;66408;51.326;12.070;2023-07-24T02:42:15;4.03;;;1.85;;
77332;SDS011;66408;51.326;12.070;2023-07-24T02:44:42;3.30;;;1.70;;
77332;SDS011;66408;51.326;12.070;2023-07-24T02:47:08;3.33;;;1.83;;
77332;SDS011;66408;51.326;12.070;2023-07-24T02:49:35;3.90;;;1.92;;
77332;SDS011;66408;51.326;12.070;2023-07-24T02:52:02;3.13;;;1.83;;
77332;SDS011;66408;51.326;12.070;2023-07-24T02:54:29;3.40;;;2.10;;
77332;SDS011;66408;51.326;12.070;2023-07-24T02:56:56;3.10;;;1.85;;
77332;SDS011;66408;51.326;12.070;2023-07-24T02:59:24;3.15;;;1.80;;
77332;SDS011;66408;51.326;12.070;2023-07-24T03:01:51;3.17;;;2.13;;
77332;SDS011;66408;51.326;12.070;2023-07-24T03:04:18;3.42;;;2.10;;
77332;SDS011;66408;51.326;12.070;2023-07-24T03:06:45;4.75;;;2.30;;
77332;SDS011;66408;51.326;12.070;2023-07-24T03:09:11;3.63;;;2.25;;
77332;SDS011;66408;51.326;12.070;2023-07-24T03:11:38;3.65;;;2.33;;
77332;SDS011;66408;51.326;12.070;2023-07-24T03:14:05;3.83;;;2.17;;
77332;SDS011;66408;51.326;12.070;2023-07-24T03:16:33;3.33;;;1.90;;
77332;SDS011;66408;51.326;12.070;2023-07-24T03:19:00;3.97;;;2.17;;
77332;SDS011;66408;51.326;12.070;2023-07-24T03:21:26;5.38;;;2.33;;
77332;SDS011;66408;51.326;12.070;2023-07-24T03:23:53;3.30;;;1.92;;
77332;SDS011;66408;51.326;12.070;2023-07-24T03:26:19;6.45;;;2.53;;
77332;SDS011;66408;51.326;12.070;2023-07-24T03:28:46;4.50;;;2.47;;
77332;SDS011;66408;51.326;12.070;2023-07-24T03:31:13;4.05;;;2.13;;
77332;SDS011;66408;51.326;12.070;2023-07-24T03:33:40;3.83;;;2.10;;
77332;SDS011;66408;51.326;12.070;2023-07-24T03:36:06;5.80;;;2.50;;
77332;SDS011;66408;51.326;12.070;2023-07-24T03:38:33;4.57;;;2.60;;
77332;SDS011;66408;51.326;12.070;2023-07-24T03:41:01;4.28;;;2.67;;
77332;SDS011;66408;51.326;12.070;2023-07-24T03:43:27;4.63;;;1.80;;
77332;SDS011;66408;51.326;12.070;2023-07-24T03:45:54;4.28;;;2.25;;
77332;SDS011;66408;51.326;12.070;2023-07-24T03:48:21;3.35;;;2.22;;
77332;SDS011;66408;51.326;12.070;2023-07-24T03:50:49;3.22;;;2.40;;
77332;SDS011;66408;51.326;12.070;2023-07-24T03:53:16;3.90;;;2.45;;
77332;SDS011;66408;51.326;12.070;2023-07-24T03:55:43;3.92;;;2.25;;
77332;SDS011;66408;51.326;12.070;2023-07-24T03:58:10;4.15;;;2.28;;
77332;SDS011;66408;51.326;12.070;2023-07-24T04:00:37;4.05;;;2.20;;
77332;SDS011;66408;51.326;12.070;2023-07-24T04:03:04;4.32;;;2.30;;
77332;SDS011;66408;51.326;12.070;2023-07-24T04:05:31;6.43;;;2.35;;
77332;SDS011;66408;51.326;12.070;2023-07-24T04:07:57;3.92;;;2.38;;
77332;SDS011;66408;51.326;12.070;2023-07-24T04:10:24;4.45;;;2.20;;
77332;SDS011;66408;51.326;12.070;2023-07-24T04:12:51;6.47;;;2.65;;
77332;SDS011;66408;51.326;12.070;2023-07-24T04:15:18;6.93;;;2.53;;
77332;SDS011;66408;51.326;12.070;2023-07-24T04:17:44;4.85;;;2.30;;
77332;SDS011;66408;51.326;12.070;2023-07-24T04:20:11;5.85;;;2.55;;
77332;SDS011;66408;51.326;12.070;2023-07-24T04:22:38;4.40;;;2.53;;
77332;SDS011;66408;51.326;12.070;2023-07-24T04:25:05;3.63;;;2.10;;
77332;SDS011;66408;51.326;12.070;2023-07-24T04:27:32;3.92;;;2.10;;
77332;SDS011;66408;51.326;12.070;2023-07-24T04:29:58;3.80;;;2.33;;
77332;SDS011;66408;51.326;12.070;2023-07-24T04:32:26;4.50;;;2.40;;
77332;SDS011;66408;51.326;12.070;2023-07-24T04:34:54;4.93;;;2.65;;
77332;SDS011;66408;51.326;12.070;2023-07-24T04:37:20;4.88;;;2.17;;
77332;SDS011;66408;51.326;12.070;2023-07-24T04:39:47;3.78;;;2.13;;
77332;SDS011;66408;51.326;12.070;2023-07-24T04:42:14;4.20;;;2.03;;
77332;SDS011;66408;51.326;12.070;2023-07-24T04:44:40;4.07;;;1.98;;
77332;SDS011;66408;51.326;12.070;2023-07-24T04:47:07;4.85;;;2.47;;
77332;SDS011;66408;51.326;12.070;2023-07-24T04:49:33;3.67;;;2.40;;
77332;SDS011;66408;51.326;12.070;2023-07-24T04:52:01;5.13;;;2.13;;
77332;SDS011;66408;51.326;12.070;2023-07-24T04:54:28;4.00;;;2.35;;
77332;SDS011;66408;51.326;12.070;2023-07-24T04:56:54;4.60;;;2.15;;
77332;SDS011;66408;51.326;12.070;2023-07-24T04:59:21;5.07;;;1.95;;
77332;SDS011;66408;51.326;12.070;2023-07-24T05:01:48;3.95;;;2.45;;
77332;SDS011;66408;51.326;12.070;2023-07-24T05:04:14;3.72;;;2.35;;
77332;SDS011;66408;51.326;12.070;2023-07-24T05:06:41;4.45;;;2.60;;
77332;SDS011;66408;51.326;12.070;2023-07-24T05:09:08;4.07;;;2.53;;
77332;SDS011;66408;51.326;12.070;2023-07-24T05:11:35;3.88;;;2.00;;
77332;SDS011;66408;51.326;12.070;2023-07-24T05:14:01;3.65;;;2.10;;
77332;SDS011;66408;51.326;12.070;2023-07-24T05:16:28;3.97;;;2.33;;
77332;SDS011;66408;51.326;12.070;2023-07-24T05:18:56;3.67;;;2.35;;
77332;SDS011;66408;51.326;12.070;2023-07-24T05:21:23;3.97;;;2.30;;
77332;SDS011;66408;51.326;12.070;2023-07-24T05:23:49;3.47;;;2.13;;
77332;SDS011;66408;51.326;12.070;2023-07-24T05:26:16;3.80;;;2.35;;
77332;SDS011;66408;51.326;12.070;2023-07-24T05:28:43;5.45;;;2.72;;
77332;SDS011;66408;51.326;12.070;2023-07-24T05:31:10;3.70;;;2.20;;
77332;SDS011;66408;51.326;12.070;2023-07-24T05:33:37;4.82;;;2.88;;
77332;SDS011;66408;51.326;12.070;2023-07-24T05:36:04;4.30;;;2.33;;
77332;SDS011;66408;51.326;12.070;2023-07-24T05:38:31;4.25;;;2.33;;
77332;SDS011;66408;51.326;12.070;2023-07-24T05:40:58;4.07;;;2.30;;
77332;SDS011;66408;51.326;12.070;2023-07-24T05:45:54;4.32;;;2.58;;
77332;SDS011;66408;51.326;12.070;2023-07-24T05:48:22;4.18;;;2.53;;
77332;SDS011;66408;51.326;12.070;2023-07-24T05:50:49;4.25;;;3.03;;
77332;SDS011;66408;51.326;12.070;2023-07-24T05:53:17;4.85;;;2.45;;
77332;SDS011;66408;51.326;12.070;2023-07-24T05:55:44;4.20;;;2.85;;
77332;SDS011;66408;51.326;12.070;2023-07-24T05:58:11;3.83;;;2.30;;
77332;SDS011;66408;51.326;12.070;2023-07-24T06:00:38;3.97;;;2.20;;
77332;SDS011;66408;51.326;12.070;2023-07-24T06:03:05;5.57;;;2.65;;
77332;SDS011;66408;51.326;12.070;2023-07-24T06:05:34;5.00;;;2.67;;
77332;SDS011;66408;51.326;12.070;2023-07-24T06:08:01;5.15;;;2.70;;
77332;SDS011;66408;51.326;12.070;2023-07-24T06:10:28;4.47;;;2.33;;
77332;SDS011;66408;51.326;12.070;2023-07-24T06:12:55;5.43;;;2.55;;
77332;SDS011;66408;51.326;12.070;2023-07-24T06:15:22;5.80;;;3.22;;
77332;SDS011;66408;51.326;12.070;2023-07-24T06:17:48;3.95;;;2.50;;
77332;SDS011;66408;51.326;12.070;2023-07-24T06:20:19;4.45;;;2.72;;
77332;SDS011;66408;51.326;12.070;2023-07-24T06:22:46;5.20;;;2.38;;
77332;SDS011;66408;51.326;12.070;2023-07-24T06:25:12;4.18;;;2.55;;
77332;SDS011;66408;51.326;12.070;2023-07-24T06:27:39;4.63;;;2.55;;
77332;SDS011;66408;51.326;12.070;2023-07-24T06:30:06;5.40;;;3.03;;
77332;SDS011;66408;51.326;12.070;2023-07-24T06:32:41;5.13;;;2.90;;
77332;SDS011;66408;51.326;12.070;2023-07-24T06:35:08;4.20;;;2.33;;
77332;SDS011;66408;51.326;12.070;2023-07-24T06:37:35;5.78;;;2.70;;
77332;SDS011;66408;51.326;12.070;2023-07-24T06:40:02;6.03;;;2.78;;
77332;SDS011;66408;51.326;12.070;2023-07-24T06:42:29;4.57;;;2.60;;
77332;SDS011;66408;51.326;12.070;2023-07-24T06:44:56;5.50;;;2.92;;
77332;SDS011;66408;51.326;12.070;2023-07-24T06:47:22;7.72;;;3.00;;
77332;SDS011;66408;51.326;12.070;2023-07-24T06:49:49;5.97;;;2.55;;
77332;SDS011;66408;51.326;12.070;2023-07-24T06:52:16;4.38;;;2.72;;
77332;SDS011;66408;51.326;12.070;2023-07-24T06:54:43;4.20;;;2.72;;
77332;SDS011;66408;51.326;12.070;2023-07-24T06:57:10;4.82;;;2.80;;
77332;SDS011;66408;51.326;12.070;2023-07-24T06:59:36;4.60;;;2.55;;
77332;SDS011;66408;51.326;12.070;2023-07-24T07:02:03;5.40;;;2.72;;
77332;SDS011;66408;51.326;12.070;2023-07-24T07:04:30;4.93;;;2.72;;
77332;SDS011;66408;51.326;12.070;2023-07-24T07:06:56;5.80;;;2.63;;
77332;SDS011;66408;51.326;12.070;2023-07-24T07:09:23;5.75;;;2.67;;
77332;SDS011;66408;51.326;12.070;2023-07-24T07:11:50;5.30;;;2.90;;
77332;SDS011;66408;51.326;12.070;2023-07-24T07:14:16;5.85;;;3.00;;
77332;SDS011;66408;51.326;12.070;2023-07-24T07:16:43;4.93;;;2.90;;
77332;SDS011;66408;51.326;12.070;2023-07-24T07:19:10;4.15;;;2.53;;
77332;SDS011;66408;51.326;12.070;2023-07-24T07:21:37;4.57;;;2.67;;
77332;SDS011;66408;51.326;12.070;2023-07-24T07:24:04;5.45;;;3.25;;
77332;SDS011;66408;51.326;12.070;2023-07-24T07:26:31;4.30;;;2.55;;
77332;SDS011;66408;51.326;12.070;2023-07-24T07:28:58;10.13;;;3.10;;
77332;SDS011;66408;51.326;12.070;2023-07-24T07:31:26;4.30;;;2.60;;
77332;SDS011;66408;51.326;12.070;2023-07-24T07:33:53;5.85;;;2.90;;
77332;SDS011;66408;51.326;12.070;2023-07-24T07:36:20;5.20;;;2.55;;
77332;SDS011;66408;51.326;12.070;2023-07-24T07:38:49;4.45;;;3.05;;
77332;SDS011;66408;51.326;12.070;2023-07-24T07:41:16;4.63;;;2.80;;
77332;SDS011;66408;51.326;12.070;2023-07-24T07:43:42;5.15;;;2.90;;
77332;SDS011;66408;51.326;12.070;2023-07-24T07:46:09;4.13;;;2.60;;
77332;SDS011;66408;51.326;12.070;2023-07-24T07:48:37;6.68;;;3.28;;
77332;SDS011;66408;51.326;12.070;2023-07-24T07:51:04;5.13;;;2.55;;
77332;SDS011;66408;51.326;12.070;2023-07-24T07:53:30;7.85;;;2.75;;
77332;SDS011;66408;51.326;12.070;2023-07-24T07:55:58;4.75;;;2.95;;
77332;SDS011;66408;51.326;12.070;2023-07-24T07:58:28;5.00;;;2.80;;
77332;SDS011;66408;51.326;12.070;2023-07-24T08:00:55;5.32;;;2.80;;
77332;SDS011;66408;51.326;12.070;2023-07-24T08:03:22;5.00;;;3.00;;
77332;SDS011;66408;51.326;12.070;2023-07-24T08:05:49;4.43;;;2.50;;
77332;SDS011;66408;51.326;12.070;2023-07-24T08:08:16;4.45;;;2.75;;
77332;SDS011;66408;51.326;12.070;2023-07-24T08:10:42;5.50;;;3.20;;
77332;SDS011;66408;51.326;12.070;2023-07-24T08:13:09;5.95;;;2.88;;
77332;SDS011;66408;51.326;12.070;2023-07-24T08:15:36;5.53;;;3.28;;
77332;SDS011;66408;51.326;12.070;2023-07-24T08:18:04;4.13;;;2.53;;
77332;SDS011;66408;51.326;12.070;2023-07-24T08:20:35;5.18;;;3.33;;
77332;SDS011;66408;51.326;12.070;2023-07-24T08:23:03;5.97;;;3.20;;
77332;SDS011;66408;51.326;12.070;2023-07-24T08:25:30;4.40;;;2.58;;
77332;SDS011;66408;51.326;12.070;2023-07-24T08:27:56;6.18;;;2.90;;
77332;SDS011;66408;51.326;12.070;2023-07-24T08:30:31;4.68;;;2.30;;
77332;SDS011;66408;51.326;12.070;2023-07-24T08:32:58;5.53;;;2.47;;
77332;SDS011;66408;51.326;12.070;2023-07-24T08:35:26;4.68;;;2.75;;
77332;SDS011;66408;51.326;12.070;2023-07-24T08:37:53;4.72;;;2.67;;
77332;SDS011;66408;51.326;12.070;2023-07-24T08:40:20;5.95;;;2.85;;
77332;SDS011;66408;51.326;12.070;2023-07-24T08:42:49;5.38;;;2.97;;
77332;SDS011;66408;51.326;12.070;2023-07-24T08:45:17;4.57;;;2.75;;
77332;SDS011;66408;51.326;12.070;2023-07-24T08:47:44;5.78;;;2.90;;
77332;SDS011;66408;51.326;12.070;2023-07-24T08:50:12;5.63;;;3.33;;
77332;SDS011;66408;51.326;12.070;2023-07-24T08:52:41;4.60;;;2.40;;
77332;SDS011;66408;51.326;12.070;2023-07-24T08:55:11;5.47;;;2.70;;
77332;SDS011;66408;51.326;12.070;2023-07-24T09:00:06;5.13;;;2.90;;
77332;SDS011;66408;51.326;12.070;2023-07-24T09:02:34;5.13;;;2.97;;
77332;SDS011;66408;51.326;12.070;2023-07-24T09:05:01;5.57;;;2.70;;
77332;SDS011;66408;51.326;12.070;2023-07-24T09:07:30;5.05;;;2.95;;
77332;SDS011;66408;51.326;12.070;2023-07-24T09:09:57;5.57;;;3.25;;
77332;SDS011;66408;51.326;12.070;2023-07-24T09:12:24;4.70;;;2.88;;
77332;SDS011;66408;51.326;12.070;2023-07-24T09:15:03;5.20;;;2.75;;
77332;SDS011;66408;51.326;12.070;2023-07-24T09:17:32;6.30;;;3.25;;
77332;SDS011;66408;51.326;12.070;2023-07-24T09:20:00;5.75;;;3.00;;
77332;SDS011;66408;51.326;12.070;2023-07-24T09:22:28;7.85;;;3.70;;
77332;SDS011;66408;51.326;12.070;2023-07-24T09:24:55;5.03;;;2.92;;
77332;SDS011;66408;51.326;12.070;2023-07-24T09:27:29;7.72;;;3.17;;
77332;SDS011;66408;51.326;12.070;2023-07-24T09:29:58;5.60;;;3.03;;
77332;SDS011;66408;51.326;12.070;2023-07-24T09:32:25;5.38;;;3.08;;
77332;SDS011;66408;51.326;12.070;2023-07-24T09:34:53;5.47;;;3.58;;
77332;SDS011;66408;51.326;12.070;2023-07-24T09:37:28;6.07;;;3.05;;
77332;SDS011;66408;51.326;12.070;2023-07-24T09:39:57;6.20;;;3.25;;
77332;SDS011;66408;51.326;12.070;2023-07-24T09:42:32;5.13;;;3.22;;
77332;SDS011;66408;51.326;12.070;2023-07-24T09:45:18;5.13;;;3.35;;
77332;SDS011;66408;51.326;12.070;2023-07-24T09:47:49;5.65;;;3.45;;
77332;SDS011;66408;51.326;12.070;2023-07-24T09:50:24;6.57;;;3.70;;
77332;SDS011;66408;51.326;12.070;2023-07-24T09:52:51;6.07;;;3.40;;
77332;SDS011;66408;51.326;12.070;2023-07-24T09:55:21;6.03;;;3.50;;
77332;SDS011;66408;51.326;12.070;2023-07-24T09:57:56;5.63;;;3.97;;
77332;SDS011;66408;51.326;12.070;2023-07-24T10:00:25;6.65;;;3.80;;
77332;SDS011;66408;51.326;12.070;2023-07-24T10:02:52;6.05;;;3.50;;
77332;SDS011;66408;51.326;12.070;2023-07-24T10:05:19;6.63;;;3.85;;
77332;SDS011;66408;51.326;12.070;2023-07-24T10:07:46;6.43;;;4.25;;
77332;SDS011;66408;51.326;12.070;2023-07-24T10:10:14;6.65;;;3.95;;
77332;SDS011;66408;51.326;12.070;2023-07-24T10:12:42;6.63;;;3.75;;
77332;SDS011;66408;51.326;12.070;2023-07-24T10:15:10;5.80;;;3.90;;
77332;SDS011;66408;51.326;12.070;2023-07-24T10:17:38;6.68;;;4.00;;
77332;SDS011;66408;51.326;12.070;2023-07-24T10:20:10;7.35;;;4.20;;
77332;SDS011;66408;51.326;12.070;2023-07-24T10:22:41;6.90;;;4.22;;
77332;SDS011;66408;51.326;12.070;2023-07-24T10:25:11;7.03;;;4.18;;
77332;SDS011;66408;51.326;12.070;2023-07-24T10:27:45;7.45;;;4.38;;
77332;SDS011;66408;51.326;12.070;2023-07-24T10:30:14;6.47;;;4.10;;
77332;SDS011;66408;51.326;12.070;2023-07-24T10:33:07;6.80;;;4.43;;
77332;SDS011;66408;51.326;12.070;2023-07-24T10:35:43;6.43;;;4.07;;
77332;SDS011;66408;51.326;12.070;2023-07-24T10:38:13;5.97;;;4.00;;
77332;SDS011;66408;51.326;12.070;2023-07-24T10:40:43;5.95;;;3.47;;
77332;SDS011;66408;51.326;12.070;2023-07-24T10:43:12;7.38;;;4.55;;
77332;SDS011;66408;51.326;12.070;2023-07-24T10:45:50;6.05;;;3.75;;
77332;SDS011;66408;51.326;12.070;2023-07-24T10:48:20;6.97;;;4.38;;
77332;SDS011;66408;51.326;12.070;2023-07-24T10:50:49;6.55;;;4.10;;
77332;SDS011;66408;51.326;12.070;2023-07-24T10:53:20;7.50;;;4.28;;
77332;SDS011;66408;51.326;12.070;2023-07-24T10:55:48;7.88;;;4.22;;
77332;SDS011;66408;51.326;12.070;2023-07-24T10:58:17;7.82;;;4.03;;
77332;SDS011;66408;51.326;12.070;2023-07-24T11:00:44;6.28;;;3.67;;
77332;SDS011;66408;51.326;12.070;2023-07-24T11:03:12;10.98;;;4.05;;
77332;SDS011;66408;51.326;12.070;2023-07-24T11:05:40;7.45;;;4.15;;
77332;SDS011;66408;51.326;12.070;2023-07-24T11:08:14;7.45;;;4.70;;
77332;SDS011;66408;51.326;12.070;2023-07-24T11:10:49;8.02;;;4.35;;
77332;SDS011;66408;51.326;12.070;2023-07-24T11:13:18;7.18;;;4.25;;
77332;SDS011;66408;51.326;12.070;2023-07-24T11:15:47;8.65;;;4.50;;
77332;SDS011;66408;51.326;12.070;2023-07-24T11:18:16;8.45;;;4.50;;
77332;SDS011;66408;51.326;12.070;2023-07-24T11:20:44;7.35;;;4.78;;
77332;SDS011;66408;51.326;12.070;2023-07-24T11:23:12;6.93;;;4.32;;
77332;SDS011;66408;51.326;12.070;2023-07-24T11:25:40;9.07;;;4.70;;
77332;SDS011;66408;51.326;12.070;2023-07-24T11:28:07;9.20;;;4.45;;
77332;SDS011;66408;51.326;12.070;2023-07-24T11:30:36;8.45;;;5.13;;
77332;SDS011;66408;51.326;12.070;2023-07-24T11:33:03;5.75;;;3.80;;
77332;SDS011;66408;51.326;12.070;2023-07-24T11:35:32;7.47;;;4.75;;
77332;SDS011;66408;51.326;12.070;2023-07-24T11:37:59;7.30;;;4.43;;
77332;SDS011;66408;51.326;12.070;2023-07-24T11:40:36;7.68;;;4.43;;
77332;SDS011;66408;51.326;12.070;2023-07-24T11:43:05;7.78;;;4.75;;
77332;SDS011;66408;51.326;12.070;2023-07-24T11:45:42;7.82;;;5.20;;
77332;SDS011;66408;51.326;12.070;2023-07-24T11:48:10;8.98;;;5.55;;
77332;SDS011;66408;51.326;12.070;2023-07-24T11:50:47;8.63;;;4.90;;
77332;SDS011;66408;51.326;12.070;2023-07-24T11:53:19;8.80;;;4.97;;
77332;SDS011;66408;51.326;12.070;2023-07-24T11:55:47;7.35;;;4.85;;
77332;SDS011;66408;51.326;12.070;2023-07-24T11:58:14;8.10;;;4.97;;
77332;SDS011;66408;51.326;12.070;2023-07-24T12:00:42;7.93;;;5.00;;
77332;SDS011;66408;51.326;12.070;2023-07-24T12:03:09;14.48;;;5.80;;
77332;SDS011;66408;51.326;12.070;2023-07-24T12:05:42;8.10;;;5.18;;
77332;SDS011;66408;51.326;12.070;2023-07-24T12:08:13;8.32;;;4.78;;
77332;SDS011;66408;51.326;12.070;2023-07-24T12:10:40;7.82;;;4.80;;
77332;SDS011;66408;51.326;12.070;2023-07-24T12:13:07;7.47;;;4.95;;
77332;SDS011;66408;51.326;12.070;2023-07-24T12:15:33;8.18;;;5.13;;
77332;SDS011;66408;51.326;12.070;2023-07-24T12:18:02;9.07;;;4.93;;
77332;SDS011;66408;51.326;12.070;2023-07-24T12:20:30;9.90;;;6.10;;
77332;SDS011;66408;51.326;12.070;2023-07-24T12:22:57;8.98;;;5.53;;
77332;SDS011;66408;51.326;12.070;2023-07-24T12:25:24;8.55;;;5.30;;
77332;SDS011;66408;51.326;12.070;2023-07-24T12:27:51;7.43;;;4.68;;
77332;SDS011;66408;51.326;12.070;2023-07-24T12:30:17;8.85;;;4.85;;
77332;SDS011;66408;51.326;12.070;2023-07-24T12:32:44;7.50;;;5.00;;
77332;SDS011;66408;51.326;12.070;2023-07-24T12:35:11;9.23;;;5.07;;
77332;SDS011;66408;51.326;12.070;2023-07-24T12:37:42;8.70;;;5.20;;
77332;SDS011;66408;51.326;12.070;2023-07-24T12:40:08;6.95;;;4.22;;
77332;SDS011;66408;51.326;12.070;2023-07-24T12:42:35;7.82;;;4.50;;
77332;SDS011;66408;51.326;12.070;2023-07-24T12:45:02;8.15;;;5.05;;
77332;SDS011;66408;51.326;12.070;2023-07-24T12:47:30;10.27;;;5.25;;
77332;SDS011;66408;51.326;12.070;2023-07-24T12:49:57;7.82;;;5.07;;
77332;SDS011;66408;51.326;12.070;2023-07-24T12:52:25;8.52;;;4.88;;
77332;SDS011;66408;51.326;12.070;2023-07-24T12:54:53;7.57;;;4.45;;
77332;SDS011;66408;51.326;12.070;2023-07-24T12:57:27;7.60;;;5.00;;
77332;SDS011;66408;51.326;12.070;2023-07-24T12:59:54;10.45;;;5.15;;
77332;SDS011;66408;51.326;12.070;2023-07-24T13:02:20;7.65;;;4.63;;
77332;SDS011;66408;51.326;12.070;2023-07-24T13:04:47;8.23;;;4.65;;
77332;SDS011;66408;51.326;12.070;2023-07-24T13:07:13;11.57;;;4.82;;
77332;SDS011;66408;51.326;12.070;2023-07-24T13:09:40;8.32;;;4.93;;
77332;SDS011;66408;51.326;12.070;2023-07-24T13:12:07;10.00;;;4.88;;
77332;SDS011;66408;51.326;12.070;2023-07-24T13:14:34;6.70;;;4.38;;
77332;SDS011;66408;51.326;12.070;2023-07-24T13:17:01;9.55;;;4.63;;
77332;SDS011;66408;51.326;12.070;2023-07-24T13:19:27;7.32;;;4.20;;
77332;SDS011;66408;51.326;12.070;2023-07-24T13:21:54;8.25;;;4.63;;
77332;SDS011;66408;51.326;12.070;2023-07-24T13:24:21;8.00;;;4.68;;
77332;SDS011;66408;51.326;12.070;2023-07-24T13:26:47;10.07;;;4.40;;
77332;SDS011;66408;51.326;12.070;2023-07-24T13:29:14;7.97;;;4.50;;
77332;SDS011;66408;51.326;12.070;2023-07-24T13:31:41;7.43;;;4.68;;
77332;SDS011;66408;51.326;12.070;2023-07-24T13:34:07;8.48;;;5.10;;
77332;SDS011;66408;51.326;12.070;2023-07-24T13:36:37;7.95;;;5.05;;
77332;SDS011;66408;51.326;12.070;2023-07-24T13:39:03;7.53;;;4.50;;
77332;SDS011;66408;51.326;12.070;2023-07-24T13:41:30;8.05;;;4.72;;
77332;SDS011;66408;51.326;12.070;2023-07-24T13:43:57;7.88;;;4.38;;
77332;SDS011;66408;51.326;12.070;2023-07-24T13:46:24;7.43;;;4.68;;
77332;SDS011;66408;51.326;12.070;2023-07-24T13:48:50;6.93;;;4.80;;
77332;SDS011;66408;51.326;12.070;2023-07-24T13:51:17;9.48;;;5.03;;
77332;SDS011;66408;51.326;12.070;2023-07-24T13:53:43;8.80;;;4.80;;
77332;SDS011;66408;51.326;12.070;2023-07-24T13:56:12;7.88;;;4.63;;
77332;SDS011;66408;51.326;12.070;2023-07-24T13:58:40;9.07;;;4.72;;
77332;SDS011;66408;51.326;12.070;2023-07-24T14:01:06;8.25;;;4.40;;
77332;SDS011;66408;51.326;12.070;2023-07-24T14:03:33;6.65;;;4.40;;
77332;SDS011;66408;51.326;12.070;2023-07-24T14:06:00;11.00;;;4.93;;
77332;SDS011;66408;51.326;12.070;2023-07-24T14:08:27;7.75;;;4.68;;
77332;SDS011;66408;51.326;12.070;2023-07-24T14:10:53;7.22;;;4.68;;
77332;SDS011;66408;51.326;12.070;2023-07-24T14:13:20;8.15;;;4.55;;
77332;SDS011;66408;51.326;12.070;2023-07-24T14:15:46;8.05;;;4.93;;
77332;SDS011;66408;51.326;12.070;2023-07-24T14:18:12;6.70;;;4.32;;
77332;SDS011;66408;51.326;12.070;2023-07-24T14:20:39;7.72;;;4.30;;
77332;SDS011;66408;51.326;12.070;2023-07-24T14:23:07;8.00;;;4.85;;
77332;SDS011;66408;51.326;12.070;2023-07-24T14:25:35;8.65;;;4.20;;
77332;SDS011;66408;51.326;12.070;2023-07-24T14:28:01;8.18;;;4.28;;
77332;SDS011;66408;51.326;12.070;2023-07-24T14:30:28;7.93;;;4.97;;
77332;SDS011;66408;51.326;12.070;2023-07-24T14:32:55;7.45;;;4.90;;
77332;SDS011;66408;51.326;12.070;2023-07-24T14:35:22;7.65;;;4.43;;
77332;SDS011;66408;51.326;12.070;2023-07-24T14:37:49;9.27;;;5.05;;
77332;SDS011;66408;51.326;12.070;2023-07-24T14:40:15;7.50;;;4.68;;
77332;SDS011;66408;51.326;12.070;2023-07-24T14:42:42;8.40;;;4.90;;
77332;SDS011;66408;51.326;12.070;2023-07-24T14:45:08;10.40;;;5.00;;
77332;SDS011;66408;51.326;12.070;2023-07-24T14:47:35;7.95;;;4.60;;